Time;durP1;ratioP1;P1;durP2;ratioP2;P2;SDS_P1;SDS_P2;PMS_P1;PMS_P2;Temp;Humidity;BMP_temperature;BMP_pressure;BME280_temperature;BME280_humidity;BME280_pressure;Samples;Min_cycle;Max_cycle;Signal;HPM_P1;HPM_P2
2023/12/06 00:00:41;;;;;;;0.60;0.60;;;16.20;64.80;;;;;;4965161;28;20054;-91
2023/12/06 00:03:07;;;;;;;1.85;0.80;;;16.20;64.00;;;;;;4963982;28;20363;-91
2023/12/06 00:05:32;;;;;;;0.55;0.55;;;16.20;64.00;;;;;;4964810;28;20054;-92
2023/12/06 00:07:58;;;;;;;0.80;0.80;;;16.20;64.00;;;;;;4966215;28;20054;-91
2023/12/06 00:10:24;;;;;;;0.60;0.60;;;16.20;64.00;;;;;;4961910;28;21071;-91
2023/12/06 00:12:49;;;;;;;1.33;0.70;;;16.20;64.00;;;;;;4967029;28;20066;-92
2023/12/06 00:15:15;;;;;;;0.50;0.50;;;16.20;64.00;;;;;;4964861;28;20420;-91
2023/12/06 00:17:41;;;;;;;0.68;0.68;;;16.20;64.00;;;;;;4980232;28;20143;-92
2023/12/06 00:20:07;;;;;;;0.50;0.50;;;16.20;64.00;;;;;;4966528;28;20047;-91
2023/12/06 00:22:32;;;;;;;1.73;0.47;;;16.20;63.90;;;;;;4966792;28;20022;-92
2023/12/06 00:24:58;;;;;;;0.50;0.50;;;16.20;63.90;;;;;;4967920;28;20516;-92
2023/12/06 00:27:24;;;;;;;1.75;0.63;;;16.20;64.00;;;;;;4967570;28;20047;-94
2023/12/06 00:29:49;;;;;;;0.47;0.47;;;16.20;63.90;;;;;;4981814;28;20051;-93
2023/12/06 00:32:15;;;;;;;0.63;0.63;;;16.20;63.90;;;;;;4968432;28;20050;-92
2023/12/06 00:34:40;;;;;;;0.60;0.60;;;16.20;64.00;;;;;;4969994;28;20525;-93
2023/12/06 00:37:06;;;;;;;0.57;0.57;;;16.20;64.00;;;;;;4970634;28;20508;-93
2023/12/06 00:39:31;;;;;;;0.55;0.50;;;16.20;63.80;;;;;;4971747;28;20062;-95
2023/12/06 00:41:57;;;;;;;0.52;0.52;;;16.20;63.90;;;;;;4984495;28;20117;-95
2023/12/06 00:44:22;;;;;;;0.55;0.55;;;16.20;63.80;;;;;;4974776;28;20050;-95
2023/12/06 00:46:49;;;;;;;1.05;0.68;;;16.20;63.90;;;;;;4972398;28;20047;-95
2023/12/06 00:49:17;;;;;;;0.50;0.40;;;16.20;63.90;;;;;;4982559;28;20043;-95
2023/12/06 00:51:43;;;;;;;0.60;0.60;;;16.20;63.90;;;;;;4969376;28;20113;-95
2023/12/06 00:54:08;;;;;;;0.60;0.52;;;16.10;63.80;;;;;;4970967;28;20043;-95
2023/12/06 00:56:34;;;;;;;0.77;0.70;;;16.20;64.60;;;;;;4965639;28;20102;-95
2023/12/06 00:58:59;;;;;;;0.70;0.70;;;16.10;63.80;;;;;;4971589;28;20039;-95
2023/12/06 01:01:25;;;;;;;0.52;0.52;;;16.10;63.80;;;;;;4971257;28;20064;-95
2023/12/06 01:03:50;;;;;;;0.60;0.60;;;16.10;63.70;;;;;;4972579;28;20501;-95
2023/12/06 01:06:16;;;;;;;0.60;0.60;;;16.10;63.80;;;;;;4972608;28;20055;-95
2023/12/06 01:08:42;;;;;;;1.58;0.50;;;16.10;63.80;;;;;;4970769;28;22865;-95
2023/12/06 01:11:07;;;;;;;0.60;0.60;;;16.10;63.70;;;;;;4969994;28;20058;-94
2023/12/06 01:13:33;;;;;;;0.68;0.68;;;16.10;63.80;;;;;;4971379;28;20077;-94
2023/12/06 01:15:58;;;;;;;0.50;0.50;;;16.10;63.60;;;;;;4971885;28;20043;-95
2023/12/06 01:18:24;;;;;;;0.70;0.57;;;16.10;63.70;;;;;;4970428;28;20078;-92
2023/12/06 01:20:49;;;;;;;0.50;0.50;;;16.10;63.70;;;;;;4971790;28;20066;-92
2023/12/06 01:23:15;;;;;;;0.70;0.70;;;16.10;63.70;;;;;;4972218;28;20053;-92
2023/12/06 01:25:41;;;;;;;0.68;0.68;;;16.10;63.80;;;;;;4969839;28;20038;-91
2023/12/06 01:28:07;;;;;;;0.60;0.60;;;16.10;63.80;;;;;;4970450;28;20460;-92
2023/12/06 01:30:32;;;;;;;0.63;0.63;;;16.10;63.60;;;;;;4971552;28;20053;-92
2023/12/06 01:32:58;;;;;;;0.55;0.52;;;16.10;63.80;;;;;;4971377;28;20386;-92
2023/12/06 01:35:24;;;;;;;0.65;0.60;;;16.10;63.70;;;;;;4967505;28;20038;-85
2023/12/06 01:37:49;;;;;;;0.60;0.60;;;16.10;63.70;;;;;;4966977;28;20078;-90
2023/12/06 01:40:15;;;;;;;0.60;0.60;;;16.00;63.60;;;;;;4970332;28;20047;-92
2023/12/06 01:42:40;;;;;;;0.70;0.70;;;16.10;63.60;;;;;;4966540;28;20043;-92
2023/12/06 01:45:06;;;;;;;0.63;0.63;;;16.10;63.70;;;;;;4968744;28;20078;-89
2023/12/06 01:47:32;;;;;;;0.70;0.55;;;16.10;63.60;;;;;;4965202;28;20046;-89
2023/12/06 01:49:57;;;;;;;0.68;0.65;;;16.00;63.60;;;;;;4964856;28;20043;-88
2023/12/06 01:52:23;;;;;;;0.68;0.68;;;16.00;63.60;;;;;;4965965;28;20050;-95
2023/12/06 01:54:49;;;;;;;0.40;0.40;;;16.00;63.60;;;;;;4971344;28;20043;-95
2023/12/06 01:57:14;;;;;;;0.93;0.80;;;16.00;63.60;;;;;;4969955;28;20046;-94
2023/12/06 01:59:40;;;;;;;0.65;0.65;;;16.00;63.60;;;;;;4953787;28;20106;-95
2023/12/06 02:02:05;;;;;;;0.55;0.50;;;16.00;63.60;;;;;;4971683;28;20049;-95
2023/12/06 02:04:34;;;;;;;0.75;0.75;;;16.00;63.70;;;;;;4967543;28;20130;-93
2023/12/06 02:07:00;;;;;;;0.40;0.40;;;16.00;63.60;;;;;;4968481;28;20060;-95
2023/12/06 02:09:26;;;;;;;0.70;0.70;;;16.00;63.60;;;;;;4968999;28;20417;-94
2023/12/06 02:11:52;;;;;;;0.75;0.70;;;16.00;63.70;;;;;;4962303;28;20523;-94
2023/12/06 02:14:18;;;;;;;0.68;0.60;;;16.00;63.60;;;;;;4970849;28;20183;-95
2023/12/06 02:16:44;;;;;;;0.75;0.70;;;16.00;63.60;;;;;;4967979;28;20085;-94
2023/12/06 02:19:12;;;;;;;0.47;0.47;;;16.00;63.70;;;;;;4970095;28;20074;-94
2023/12/06 02:21:38;;;;;;;0.70;0.70;;;16.00;63.60;;;;;;4968143;28;20452;-95
2023/12/06 02:24:03;;;;;;;0.80;0.80;;;16.00;63.70;;;;;;4969411;28;20043;-94
2023/12/06 02:26:29;;;;;;;0.70;0.70;;;16.00;63.60;;;;;;4985066;28;20513;-94
2023/12/06 02:28:55;;;;;;;0.68;0.68;;;16.00;63.60;;;;;;4968318;28;20043;-94
2023/12/06 02:31:20;;;;;;;0.82;0.80;;;16.00;63.60;;;;;;4965060;28;20054;-94
2023/12/06 02:33:46;;;;;;;0.60;0.60;;;16.00;63.60;;;;;;4968358;28;20086;-94
2023/12/06 02:36:12;;;;;;;0.82;0.60;;;16.00;63.60;;;;;;4969515;28;20644;-93
2023/12/06 02:38:37;;;;;;;0.80;0.80;;;16.00;63.60;;;;;;4949130;28;20047;-93
2023/12/06 02:41:03;;;;;;;0.50;0.50;;;16.00;63.70;;;;;;4970349;28;20086;-92
2023/12/06 02:43:29;;;;;;;0.60;0.60;;;16.00;63.60;;;;;;4950192;28;20134;-92
2023/12/06 02:45:54;;;;;;;0.70;0.68;;;16.00;63.60;;;;;;4970381;28;20504;-93
2023/12/06 02:48:20;;;;;;;0.63;0.63;;;16.00;63.50;;;;;;4968026;28;20469;-91
2023/12/06 02:50:46;;;;;;;0.63;0.63;;;16.00;63.60;;;;;;4969636;28;20055;-92
2023/12/06 02:53:11;;;;;;;0.60;0.60;;;16.00;63.60;;;;;;4970789;28;20050;-93
2023/12/06 02:55:37;;;;;;;0.60;0.60;;;15.90;63.50;;;;;;4967477;28;20047;-92
2023/12/06 02:58:02;;;;;;;1.02;0.55;;;15.90;63.50;;;;;;4965748;28;20097;-91
2023/12/06 03:00:28;;;;;;;0.60;0.60;;;15.90;63.60;;;;;;4968436;28;20046;-92
2023/12/06 03:02:53;;;;;;;0.80;0.80;;;15.90;63.50;;;;;;4969876;28;20496;-93
2023/12/06 03:05:19;;;;;;;0.50;0.50;;;15.90;63.50;;;;;;4968975;28;20497;-94
2023/12/06 03:07:45;;;;;;;0.70;0.70;;;15.90;63.60;;;;;;4968977;28;20528;-93
2023/12/06 03:10:10;;;;;;;0.50;0.50;;;15.90;63.50;;;;;;4964611;28;20054;-93
2023/12/06 03:12:36;;;;;;;0.70;0.70;;;15.90;63.60;;;;;;4969928;28;20134;-92
2023/12/06 03:15:01;;;;;;;0.80;0.80;;;15.90;64.30;;;;;;4969594;28;20528;-93
2023/12/06 03:17:27;;;;;;;0.50;0.50;;;16.00;63.50;;;;;;4967646;28;20429;-90
2023/12/06 03:19:52;;;;;;;1.00;0.70;;;15.90;63.50;;;;;;4966743;28;20089;-90
2023/12/06 03:22:18;;;;;;;0.63;0.63;;;15.90;63.50;;;;;;4963639;28;20198;-91
2023/12/06 03:24:43;;;;;;;0.93;0.50;;;15.90;63.40;;;;;;4966870;28;20146;-92
2023/12/06 03:27:09;;;;;;;0.55;0.55;;;15.90;63.60;;;;;;4967956;28;20093;-92
2023/12/06 03:29:34;;;;;;;0.63;0.60;;;15.90;63.50;;;;;;4967915;28;20168;-92
2023/12/06 03:32:00;;;;;;;0.80;0.80;;;15.90;63.70;;;;;;4967522;28;20136;-92
2023/12/06 03:34:25;;;;;;;0.73;0.73;;;15.90;63.60;;;;;;4969286;28;20078;-93
2023/12/06 03:36:51;;;;;;;0.50;0.40;;;15.90;63.40;;;;;;4962339;28;20251;-91
2023/12/06 03:39:16;;;;;;;0.60;0.60;;;15.90;63.60;;;;;;4969020;28;20046;-91
2023/12/06 03:41:42;;;;;;;0.50;0.50;;;15.90;63.50;;;;;;4968123;28;20038;-92
2023/12/06 03:44:08;;;;;;;0.70;0.70;;;15.90;63.60;;;;;;4967002;28;20121;-91
2023/12/06 03:46:34;;;;;;;0.70;0.70;;;15.90;63.60;;;;;;4963625;28;20500;-91
2023/12/06 03:49:01;;;;;;;0.60;0.60;;;15.90;63.70;;;;;;4968943;28;20039;-93
2023/12/06 03:51:26;;;;;;;0.60;0.60;;;15.90;63.60;;;;;;4966539;28;20046;-95
2023/12/06 03:53:52;;;;;;;0.60;0.60;;;15.90;63.80;;;;;;4967681;28;20711;-94
2023/12/06 03:56:17;;;;;;;0.70;0.70;;;15.90;63.60;;;;;;4965543;28;20042;-94
2023/12/06 03:58:43;;;;;;;0.77;0.60;;;15.80;63.60;;;;;;4966831;28;20088;-93
2023/12/06 04:01:08;;;;;;;0.80;0.80;;;15.90;63.60;;;;;;4968178;28;20050;-89
2023/12/06 04:03:34;;;;;;;0.57;0.55;;;15.90;63.70;;;;;;4964450;28;20066;-88
2023/12/06 04:05:59;;;;;;;0.90;0.57;;;15.90;63.60;;;;;;4964002;28;20055;-89
2023/12/06 04:08:25;;;;;;;1.35;0.63;;;15.80;63.60;;;;;;4973808;28;20105;-88
2023/12/06 04:10:50;;;;;;;0.70;0.70;;;15.80;63.60;;;;;;4968976;28;20054;-88
2023/12/06 04:13:16;;;;;;;0.50;0.50;;;15.90;63.70;;;;;;4970654;28;20047;-89
2023/12/06 04:15:42;;;;;;;0.70;0.70;;;15.80;63.60;;;;;;4971310;28;20049;-89
2023/12/06 04:18:07;;;;;;;0.45;0.45;;;15.90;63.60;;;;;;4973430;28;20512;-94
2023/12/06 04:20:33;;;;;;;0.90;0.57;;;15.90;63.70;;;;;;4972816;28;20055;-83
2023/12/06 04:22:59;;;;;;;0.95;0.70;;;15.80;63.60;;;;;;4972485;28;20073;-92
2023/12/06 04:25:24;;;;;;;1.08;0.70;;;15.80;63.80;;;;;;4969304;28;20047;-92
2023/12/06 04:27:50;;;;;;;0.50;0.50;;;15.90;63.80;;;;;;4974259;28;20511;-92
2023/12/06 04:30:16;;;;;;;0.57;0.57;;;15.80;63.80;;;;;;4970856;28;20543;-92
2023/12/06 04:32:41;;;;;;;0.95;0.70;;;15.80;63.80;;;;;;4971551;28;20464;-91
2023/12/06 04:35:09;;;;;;;0.80;0.80;;;15.80;63.70;;;;;;4971991;28;20069;-92
2023/12/06 04:37:35;;;;;;;0.82;0.50;;;15.80;63.60;;;;;;4970678;28;20042;-93
2023/12/06 04:40:00;;;;;;;0.55;0.55;;;15.80;63.70;;;;;;4990087;28;20054;-93
2023/12/06 04:42:26;;;;;;;0.52;0.52;;;15.80;63.60;;;;;;4975306;28;20042;-93
2023/12/06 04:44:52;;;;;;;0.85;0.77;;;15.80;63.80;;;;;;4971356;28;20133;-93
2023/12/06 04:47:17;;;;;;;0.70;0.70;;;15.80;63.70;;;;;;4973061;28;20134;-94
2023/12/06 04:49:43;;;;;;;0.60;0.60;;;15.80;63.70;;;;;;4972947;28;20501;-94
2023/12/06 04:52:08;;;;;;;0.50;0.47;;;15.80;63.70;;;;;;4970163;28;20084;-94
2023/12/06 04:54:34;;;;;;;0.70;0.70;;;15.80;63.70;;;;;;4988799;28;20035;-93
2023/12/06 04:57:00;;;;;;;0.50;0.50;;;15.80;63.80;;;;;;4974397;28;20089;-91
2023/12/06 04:59:25;;;;;;;1.17;0.90;;;15.80;64.50;;;;;;4976487;28;20702;-91
2023/12/06 05:01:51;;;;;;;0.65;0.60;;;15.80;63.60;;;;;;4971555;28;20092;-90
2023/12/06 05:04:16;;;;;;;0.60;0.60;;;15.80;63.80;;;;;;4972218;28;20038;-92
2023/12/06 05:06:42;;;;;;;0.50;0.50;;;15.80;63.80;;;;;;4971878;28;20135;-91
2023/12/06 05:09:07;;;;;;;1.58;0.68;;;15.80;63.90;;;;;;4973862;28;20441;-95
2023/12/06 05:11:33;;;;;;;1.00;0.90;;;15.80;63.60;;;;;;4958028;28;20102;-95
2023/12/06 05:13:59;;;;;;;0.60;0.60;;;15.70;63.70;;;;;;4973673;28;20058;-95
2023/12/06 05:16:24;;;;;;;0.95;0.77;;;15.80;63.70;;;;;;4973586;28;20115;-93
2023/12/06 05:18:50;;;;;;;0.68;0.68;;;15.70;63.70;;;;;;4961894;28;20039;-92
2023/12/06 05:21:16;;;;;;;0.50;0.50;;;15.70;64.60;;;;;;4971192;28;20501;-92
2023/12/06 05:23:41;;;;;;;0.70;0.70;;;15.80;63.80;;;;;;4963970;28;20066;-92
2023/12/06 05:26:07;;;;;;;0.57;0.57;;;15.80;63.90;;;;;;4967931;28;20041;-93
2023/12/06 05:28:32;;;;;;;0.82;0.82;;;15.70;63.70;;;;;;4970819;28;20409;-93
2023/12/06 05:30:58;;;;;;;0.47;0.47;;;15.80;63.70;;;;;;4970242;28;20043;-92
2023/12/06 05:33:24;;;;;;;0.60;0.60;;;15.70;63.60;;;;;;4969180;28;20094;-90
2023/12/06 05:35:49;;;;;;;0.50;0.50;;;15.70;63.60;;;;;;4967528;28;20732;-91
2023/12/06 05:38:15;;;;;;;0.50;0.50;;;15.80;63.70;;;;;;4968174;28;20039;-89
2023/12/06 05:40:40;;;;;;;0.85;0.60;;;15.70;64.60;;;;;;4968723;28;20047;-91
2023/12/06 05:43:06;;;;;;;0.70;0.70;;;15.70;63.80;;;;;;4966480;28;20533;-91
2023/12/06 05:45:32;;;;;;;0.70;0.70;;;15.70;63.80;;;;;;4971507;28;20136;-92
2023/12/06 05:47:58;;;;;;;0.55;0.55;;;15.70;63.70;;;;;;4971082;28;20097;-94
2023/12/06 05:50:23;;;;;;;0.68;0.68;;;15.70;63.70;;;;;;4972824;28;20559;-94
2023/12/06 05:52:49;;;;;;;0.70;0.70;;;15.70;63.60;;;;;;4968763;28;20084;-94
2023/12/06 05:55:16;;;;;;;0.50;0.50;;;15.70;63.70;;;;;;4971374;28;20058;-93
2023/12/06 05:57:42;;;;;;;0.50;0.50;;;15.70;63.60;;;;;;4964088;28;20046;-91
2023/12/06 06:00:12;;;;;;;0.75;0.60;;;15.70;63.70;;;;;;4967976;28;20054;-92
2023/12/06 06:02:40;;;;;;;1.40;0.70;;;15.70;63.60;;;;;;4968382;28;20126;-91
2023/12/06 06:05:08;;;;;;;0.40;0.40;;;15.70;63.60;;;;;;4964012;28;20131;-90
2023/12/06 06:07:33;;;;;;;0.50;0.50;;;15.70;63.60;;;;;;4968641;28;20039;-91
2023/12/06 06:09:59;;;;;;;0.77;0.77;;;15.70;63.90;;;;;;4969359;28;20264;-90
2023/12/06 06:12:24;;;;;;;0.60;0.60;;;15.70;63.50;;;;;;4969528;28;20040;-91
2023/12/06 06:14:56;;;;;;;0.50;0.50;;;15.70;63.50;;;;;;4619181;28;10000506;-92
2023/12/06 06:17:22;;;;;;;0.57;0.57;;;15.80;63.40;;;;;;4622127;28;9999625;-82
2023/12/06 06:19:48;;;;;;;1.00;0.70;;;15.80;63.70;;;;;;4961653;28;20070;-82
2023/12/06 06:22:14;;;;;;;0.70;0.70;;;15.80;63.90;;;;;;4962707;28;20101;-82
2023/12/06 06:24:39;;;;;;;0.50;0.50;;;15.80;63.50;;;;;;4963894;28;20086;-81
2023/12/06 06:27:05;;;;;;;0.63;0.63;;;15.70;64.10;;;;;;4959106;28;20529;-82
2023/12/06 06:29:30;;;;;;;0.50;0.50;;;15.70;63.20;;;;;;4943426;28;20121;-82
2023/12/06 06:31:56;;;;;;;0.50;0.50;;;15.70;63.30;;;;;;4929410;28;20046;-82
2023/12/06 06:34:22;;;;;;;0.60;0.57;;;15.70;63.30;;;;;;4961611;28;20043;-81
2023/12/06 06:36:47;;;;;;;0.57;0.57;;;15.70;63.30;;;;;;4926641;28;20441;-82
2023/12/06 06:39:13;;;;;;;0.50;0.50;;;15.70;63.20;;;;;;4962222;28;20055;-81
2023/12/06 06:41:39;;;;;;;0.80;0.80;;;15.80;63.40;;;;;;4963161;28;20054;-83
2023/12/06 06:44:05;;;;;;;0.85;0.85;;;15.80;63.30;;;;;;4964961;28;20525;-82
2023/12/06 06:46:30;;;;;;;0.70;0.70;;;15.80;63.30;;;;;;4943827;28;20050;-83
2023/12/06 06:48:56;;;;;;;0.70;0.70;;;15.70;63.20;;;;;;4963241;28;20473;-83
2023/12/06 06:51:33;;;;;;;1.17;0.70;;;15.80;63.50;;;;;;4960819;28;20031;-84
2023/12/06 06:53:59;;;;;;;1.15;0.77;;;15.80;63.60;;;;;;4963303;28;20509;-84
2023/12/06 06:56:24;;;;;;;0.65;0.63;;;15.80;63.60;;;;;;4948548;28;20062;-84
2023/12/06 06:58:51;;;;;;;0.43;0.40;;;15.70;63.50;;;;;;4959280;28;20085;-83
2023/12/06 07:01:18;;;;;;;1.88;0.80;;;15.70;63.70;;;;;;4963075;28;20520;-83
2023/12/06 07:03:43;;;;;;;1.17;0.35;;;15.80;63.70;;;;;;4978744;28;20045;-83
2023/12/06 07:06:09;;;;;;;0.60;0.60;;;15.80;64.40;;;;;;4936376;28;20039;-84
2023/12/06 07:08:35;;;;;;;0.68;0.60;;;15.70;63.60;;;;;;4927937;28;20027;-84
2023/12/06 07:11:01;;;;;;;0.47;0.47;;;15.70;63.50;;;;;;4932523;28;20421;-84
2023/12/06 07:13:26;;;;;;;0.70;0.47;;;15.70;63.80;;;;;;4961323;28;20046;-84
2023/12/06 07:15:52;;;;;;;0.55;0.55;;;15.70;63.60;;;;;;4964330;28;20113;-84
2023/12/06 07:18:20;;;;;;;0.50;0.50;;;15.70;63.60;;;;;;4948227;28;20041;-84
2023/12/06 07:20:48;;;;;;;0.82;0.40;;;15.70;63.60;;;;;;4963827;28;20558;-83
2023/12/06 07:23:14;;;;;;;1.20;0.60;;;15.70;63.60;;;;;;4949651;28;20051;-83
2023/12/06 07:25:39;;;;;;;0.35;0.35;;;15.70;63.60;;;;;;4960640;28;20057;-85
2023/12/06 07:28:05;;;;;;;0.60;0.50;;;15.70;63.60;;;;;;4964146;28;20050;-82
2023/12/06 07:30:31;;;;;;;0.40;0.40;;;15.70;63.90;;;;;;4961058;28;20129;-84
2023/12/06 07:32:57;;;;;;;0.50;0.50;;;15.70;63.80;;;;;;4961595;28;20117;-83
2023/12/06 07:35:22;;;;;;;2.63;0.60;;;15.70;63.80;;;;;;4968715;28;20408;-83
2023/12/06 07:37:48;;;;;;;0.57;0.50;;;15.60;63.80;;;;;;4959543;28;20437;-83
2023/12/06 07:40:14;;;;;;;0.40;0.40;;;15.70;64.10;;;;;;4961801;28;20424;-84
2023/12/06 07:42:39;;;;;;;0.45;0.40;;;15.60;63.80;;;;;;4963673;28;20401;-84
2023/12/06 07:45:06;;;;;;;0.40;0.40;;;15.60;63.80;;;;;;4961394;28;20050;-84
2023/12/06 07:47:31;;;;;;;0.40;0.40;;;15.60;63.90;;;;;;4971675;28;20049;-84
2023/12/06 07:49:57;;;;;;;2.38;0.70;;;15.60;64.20;;;;;;4961488;28;20038;-84
2023/12/06 07:52:23;;;;;;;0.50;0.50;;;15.60;64.20;;;;;;4961925;28;20066;-84
2023/12/06 07:54:48;;;;;;;1.77;0.70;;;15.60;63.80;;;;;;4961259;28;20047;-84
2023/12/06 07:57:14;;;;;;;0.40;0.40;;;15.60;63.90;;;;;;4961374;28;20035;-84
2023/12/06 07:59:40;;;;;;;0.85;0.70;;;15.60;64.10;;;;;;4959851;28;20093;-84
2023/12/06 08:02:06;;;;;;;2.53;0.40;;;15.60;63.90;;;;;;4957992;28;21266;-84
2023/12/06 08:04:32;;;;;;;0.60;0.60;;;15.60;64.60;;;;;;4954121;28;20129;-84
2023/12/06 08:06:58;;;;;;;0.40;0.40;;;15.60;64.10;;;;;;4959488;28;20059;-83
2023/12/06 08:09:26;;;;;;;0.30;0.30;;;15.60;63.90;;;;;;4954687;28;20452;-83
2023/12/06 08:11:51;;;;;;;1.73;0.60;;;15.60;63.90;;;;;;4965131;28;20420;-84
2023/12/06 08:14:17;;;;;;;3.13;0.57;;;15.60;64.10;;;;;;4947208;28;20520;-84
2023/12/06 08:16:42;;;;;;;0.60;0.60;;;15.60;63.90;;;;;;4963036;28;20053;-85
2023/12/06 08:19:08;;;;;;;0.82;0.47;;;15.60;64.20;;;;;;4961822;28;20101;-84
2023/12/06 08:21:34;;;;;;;3.15;0.55;;;15.60;64.50;;;;;;4964228;28;20070;-84
2023/12/06 08:24:00;;;;;;;0.32;0.32;;;15.60;64.30;;;;;;4961922;28;20035;-84
2023/12/06 08:26:25;;;;;;;0.43;0.43;;;15.70;64.00;;;;;;4955422;28;20122;-82
2023/12/06 08:28:51;;;;;;;0.73;0.60;;;15.60;63.90;;;;;;4962070;28;20157;-83
2023/12/06 08:31:16;;;;;;;0.50;0.50;;;15.60;64.10;;;;;;4965909;28;20045;-84
2023/12/06 08:33:42;;;;;;;0.50;0.50;;;15.60;63.90;;;;;;4963949;28;20050;-84
2023/12/06 08:36:08;;;;;;;0.55;0.55;;;15.60;64.00;;;;;;4964468;28;20046;-84
2023/12/06 08:38:34;;;;;;;0.47;0.40;;;15.60;64.10;;;;;;4965936;28;20042;-83
2023/12/06 08:40:59;;;;;;;2.50;0.68;;;15.60;64.20;;;;;;4930489;28;20474;-84
2023/12/06 08:43:25;;;;;;;0.50;0.50;;;15.60;64.10;;;;;;4977347;28;20533;-84
2023/12/06 08:45:50;;;;;;;0.40;0.40;;;15.60;64.10;;;;;;4964279;28;20460;-84
2023/12/06 08:48:16;;;;;;;0.50;0.50;;;15.60;64.30;;;;;;4964328;28;20133;-84
2023/12/06 08:50:42;;;;;;;0.73;0.65;;;15.60;64.20;;;;;;4956509;28;20512;-84
2023/12/06 08:53:08;;;;;;;0.43;0.40;;;15.60;64.10;;;;;;4948804;28;20047;-83
2023/12/06 08:55:34;;;;;;;0.32;0.32;;;15.60;64.30;;;;;;4963051;28;20466;-86
2023/12/06 08:58:00;;;;;;;0.50;0.50;;;15.60;64.30;;;;;;4962264;28;20066;-83
2023/12/06 09:00:26;;;;;;;0.73;0.55;;;15.60;64.30;;;;;;4966586;28;20087;-84
2023/12/06 09:02:51;;;;;;;0.63;0.50;;;15.60;64.10;;;;;;4965821;28;20046;-84
2023/12/06 09:05:17;;;;;;;0.50;0.50;;;15.60;64.20;;;;;;4950146;28;20046;-83
2023/12/06 09:07:43;;;;;;;0.40;0.30;;;15.60;64.20;;;;;;4967432;28;20046;-83
2023/12/06 09:10:08;;;;;;;1.67;0.73;;;15.60;64.60;;;;;;4964971;28;20485;-84
2023/12/06 09:12:34;;;;;;;0.50;0.50;;;15.60;64.20;;;;;;4966914;28;20039;-83
2023/12/06 09:14:59;;;;;;;0.50;0.50;;;15.60;64.20;;;;;;4967169;28;20058;-83
2023/12/06 09:17:25;;;;;;;0.60;0.60;;;15.60;64.30;;;;;;4959450;28;20501;-83
2023/12/06 09:19:52;;;;;;;1.98;0.52;;;15.70;64.00;;;;;;4967230;28;20042;-82
2023/12/06 09:22:19;;;;;;;0.65;0.47;;;15.70;64.00;;;;;;4964088;28;20309;-83
2023/12/06 09:24:47;;;;;;;0.50;0.50;;;15.70;64.00;;;;;;4962701;28;20119;-84
2023/12/06 09:27:12;;;;;;;1.33;0.50;;;15.70;64.00;;;;;;4965985;28;20066;-83
2023/12/06 09:29:39;;;;;;;0.73;0.60;;;15.70;64.00;;;;;;4962837;28;20027;-83
2023/12/06 09:32:05;;;;;;;0.85;0.70;;;15.70;64.00;;;;;;4947071;28;20049;-85
2023/12/06 09:34:31;;;;;;;1.00;0.50;;;15.70;64.30;;;;;;4967476;28;20031;-84
2023/12/06 09:36:56;;;;;;;0.60;0.60;;;15.70;63.90;;;;;;4948795;28;20101;-85
2023/12/06 09:39:22;;;;;;;1.55;0.60;;;15.70;63.90;;;;;;4968116;28;20066;-86
2023/12/06 09:41:48;;;;;;;0.50;0.50;;;15.70;63.80;;;;;;4951813;28;27920;-84
2023/12/06 09:44:16;;;;;;;0.60;0.60;;;15.70;64.20;;;;;;4949689;28;20511;-86
2023/12/06 09:46:43;;;;;;;0.60;0.50;;;15.70;64.10;;;;;;4959805;28;20648;-84
2023/12/06 09:49:08;;;;;;;0.60;0.60;;;15.70;64.00;;;;;;4932390;28;20078;-82
2023/12/06 09:51:34;;;;;;;0.70;0.70;;;15.80;63.90;;;;;;4962321;28;20051;-83
2023/12/06 09:53:59;;;;;;;0.60;0.60;;;15.80;63.90;;;;;;4950585;28;20109;-85
2023/12/06 09:56:25;;;;;;;0.65;0.65;;;15.80;63.90;;;;;;4965144;28;20047;-83
2023/12/06 09:58:51;;;;;;;0.85;0.85;;;15.80;64.40;;;;;;4965298;28;20135;-84
2023/12/06 10:01:16;;;;;;;1.60;0.70;;;15.80;64.80;;;;;;4960119;28;20055;-85
2023/12/06 10:03:42;;;;;;;0.50;0.50;;;15.80;63.80;;;;;;4962228;28;20525;-85
2023/12/06 10:06:08;;;;;;;0.90;0.45;;;15.80;64.30;;;;;;4961015;28;20054;-84
2023/12/06 10:08:34;;;;;;;1.48;0.50;;;15.80;64.50;;;;;;4963495;28;20038;-84
2023/12/06 10:11:09;;;;;;;0.70;0.70;;;15.80;64.50;;;;;;4946933;28;20049;-84
2023/12/06 10:13:35;;;;;;;0.50;0.50;;;15.90;64.60;;;;;;4966566;28;20075;-84
2023/12/06 10:16:01;;;;;;;0.93;0.70;;;15.90;64.70;;;;;;4960380;28;20046;-83
2023/12/06 10:18:27;;;;;;;0.60;0.60;;;15.90;64.50;;;;;;4950711;28;20039;-85
2023/12/06 10:20:53;;;;;;;0.50;0.50;;;15.90;64.50;;;;;;4959990;28;20055;-84
2023/12/06 10:23:19;;;;;;;0.70;0.70;;;15.90;64.80;;;;;;4968261;28;20050;-85
2023/12/06 10:25:48;;;;;;;2.15;0.70;;;15.80;64.40;;;;;;4964206;28;20101;-85
2023/12/06 10:28:14;;;;;;;0.55;0.55;;;15.90;64.50;;;;;;4933726;28;20046;-85
2023/12/06 10:30:40;;;;;;;1.35;0.60;;;15.90;64.60;;;;;;4961213;28;20127;-84
2023/12/06 10:33:05;;;;;;;0.60;0.60;;;15.90;64.00;;;;;;4963281;28;20041;-84
2023/12/06 10:35:31;;;;;;;0.93;0.60;;;15.90;64.40;;;;;;4949198;28;20047;-85
2023/12/06 10:37:57;;;;;;;1.67;0.57;;;15.90;64.60;;;;;;4928271;28;20049;-84
2023/12/06 10:40:23;;;;;;;0.50;0.50;;;15.90;64.50;;;;;;4964100;28;20421;-85
2023/12/06 10:42:52;;;;;;;1.67;0.60;;;15.90;65.00;;;;;;4949595;28;20046;-85
2023/12/06 10:45:18;;;;;;;0.52;0.52;;;15.90;64.20;;;;;;4964288;28;20094;-84
2023/12/06 10:47:44;;;;;;;0.80;0.65;;;15.90;64.20;;;;;;4951774;28;20047;-84
2023/12/06 10:50:09;;;;;;;0.60;0.60;;;15.90;64.40;;;;;;4966926;28;20039;-84
2023/12/06 10:52:35;;;;;;;0.70;0.70;;;15.90;64.20;;;;;;4966291;28;20043;-83
2023/12/06 10:55:01;;;;;;;0.60;0.60;;;15.90;64.50;;;;;;4966105;28;20068;-84
2023/12/06 10:57:27;;;;;;;0.52;0.52;;;15.90;64.20;;;;;;4967790;28;20034;-85
2023/12/06 10:59:52;;;;;;;0.80;0.80;;;15.90;64.80;;;;;;4966848;28;20054;-85
2023/12/06 11:02:18;;;;;;;0.70;0.70;;;15.90;64.80;;;;;;4949390;28;20043;-84
2023/12/06 11:04:49;;;;;;;0.80;0.60;;;15.90;64.50;;;;;;4966747;28;20042;-84
2023/12/06 11:07:26;;;;;;;1.50;0.50;;;15.90;64.50;;;;;;4965869;28;20039;-84
2023/12/06 11:10:18;;;;;;;0.70;0.70;;;15.90;64.60;;;;;;4982339;28;20512;-86
2023/12/06 11:13:11;;;;;;;0.65;0.65;;;15.90;65.70;;;;;;4942970;28;20043;-83
2023/12/06 11:15:55;;;;;;;0.63;0.63;;;15.90;65.00;;;;;;4947940;28;20054;-86
2023/12/06 11:18:23;;;;;;;;;;;15.90;64.50;;;;;;4959784;28;20080;-85
2023/12/06 11:20:48;;;;;;;1.63;0.68;;;15.90;65.10;;;;;;4965165;28;19957;-84
2023/12/06 11:23:16;;;;;;;0.85;0.85;;;16.00;64.10;;;;;;4948207;28;20059;-85
2023/12/06 11:25:45;;;;;;;0.70;0.70;;;16.10;63.90;;;;;;4948836;28;20070;-85
2023/12/06 11:28:14;;;;;;;1.67;0.70;;;16.10;63.80;;;;;;4945246;28;20497;-85
2023/12/06 11:31:00;;;;;;;1.00;0.90;;;16.10;64.10;;;;;;4949600;28;20113;-85
2023/12/06 11:33:26;;;;;;;1.15;0.50;;;16.00;65.10;;;;;;4963798;28;20039;-84
2023/12/06 11:35:53;;;;;;;0.93;0.60;;;16.00;64.70;;;;;;4963644;28;20582;-85
2023/12/06 11:38:19;;;;;;;0.52;0.52;;;16.00;64.40;;;;;;4948923;28;20116;-85
2023/12/06 11:40:52;;;;;;;0.70;0.70;;;16.00;64.50;;;;;;4962687;28;20046;-85
2023/12/06 11:43:19;;;;;;;0.80;0.80;;;16.00;64.30;;;;;;4965125;28;20108;-85
2023/12/06 11:45:46;;;;;;;0.70;0.70;;;16.00;64.10;;;;;;4967938;28;20125;-85
2023/12/06 11:48:14;;;;;;;0.70;0.70;;;16.10;63.80;;;;;;4968231;28;20223;-85
2023/12/06 11:50:47;;;;;;;0.70;0.70;;;16.10;63.90;;;;;;4951183;28;20524;-85
2023/12/06 11:53:12;;;;;;;0.70;0.70;;;16.10;64.20;;;;;;4967273;28;20086;-85
2023/12/06 11:55:40;;;;;;;0.70;0.70;;;16.10;63.90;;;;;;4965723;28;20069;-85
2023/12/06 11:58:10;;;;;;;0.68;0.68;;;16.10;64.80;;;;;;4966029;28;20071;-85
2023/12/06 12:00:42;;;;;;;0.80;0.60;;;16.10;64.00;;;;;;4947392;28;20069;-85
2023/12/06 12:03:07;;;;;;;0.70;0.70;;;16.10;63.60;;;;;;4963625;28;20039;-84
2023/12/06 12:05:33;;;;;;;0.50;0.50;;;16.10;63.30;;;;;;4965832;28;20050;-85
2023/12/06 12:08:02;;;;;;;0.68;0.68;;;16.20;63.50;;;;;;4949407;28;20520;-84
2023/12/06 12:10:28;;;;;;;0.60;0.60;;;16.10;63.40;;;;;;4945132;28;20059;-84
2023/12/06 12:12:54;;;;;;;0.75;0.60;;;16.10;63.80;;;;;;4963998;28;20137;-85
2023/12/06 12:15:20;;;;;;;0.70;0.70;;;16.10;64.20;;;;;;4945208;28;20138;-85
2023/12/06 12:17:45;;;;;;;0.93;0.50;;;16.10;63.50;;;;;;4966122;28;20489;-95
2023/12/06 12:20:14;;;;;;;0.60;0.60;;;16.10;63.40;;;;;;4971270;28;20043;-94
2023/12/06 12:22:57;;;;;;;1.85;1.05;;;16.10;63.80;;;;;;4972207;28;20576;-94
2023/12/06 12:25:23;;;;;;;0.50;0.50;;;16.10;64.20;;;;;;4970459;28;20038;-94
2023/12/06 12:27:49;;;;;;;0.75;0.75;;;16.10;63.40;;;;;;4973297;28;20294;-90
2023/12/06 12:30:15;;;;;;;0.70;0.70;;;16.10;64.30;;;;;;4953465;28;20045;-96
2023/12/06 12:32:49;;;;;;;0.60;0.60;;;16.00;64.10;;;;;;4964756;28;20119;-87
2023/12/06 12:35:15;;;;;;;0.75;0.70;;;16.20;64.40;;;;;;4971001;28;20323;-91
2023/12/06 12:37:40;;;;;;;0.88;0.88;;;16.10;64.30;;;;;;4972402;28;20051;-92
2023/12/06 12:40:08;;;;;;;1.73;0.63;;;16.20;64.50;;;;;;4972177;28;20433;-93
2023/12/06 12:42:35;;;;;;;0.75;0.75;;;16.20;64.30;;;;;;4974627;28;20138;-92